Time;durP1;ratioP1;P1;durP2;ratioP2;P2;SDS_P1;SDS_P2;PMS_P1;PMS_P2;Temp;Humidity;BMP_temperature;BMP_pressure;BME280_temperature;BME280_humidity;BME280_pressure;Samples;Min_cycle;Max_cycle;Signal;HPM_P1;HPM_P2
2024/02/24 00:01:33;;;;;;;49.17;33.97;;;19.00;74.90;;;;;;4970529;28;20034;-65
2024/02/24 00:03:59;;;;;;;44.72;30.75;;;19.00;74.80;;;;;;4970640;28;20483;-65
2024/02/24 00:06:24;;;;;;;48.70;32.92;;;19.00;74.70;;;;;;4970532;28;20141;-65
2024/02/24 00:08:50;;;;;;;49.75;33.92;;;19.00;74.80;;;;;;4970388;28;20406;-65
2024/02/24 00:11:15;;;;;;;47.05;32.33;;;19.00;74.80;;;;;;4970149;28;20500;-65
2024/02/24 00:13:41;;;;;;;50.35;33.22;;;19.00;74.80;;;;;;4970690;28;20030;-65
2024/02/24 00:16:06;;;;;;;47.10;31.67;;;19.00;75.00;;;;;;4970676;28;20055;-64
2024/02/24 00:18:33;;;;;;;47.72;31.70;;;19.00;75.10;;;;;;4970140;28;20035;-65
2024/02/24 00:20:59;;;;;;;45.58;30.67;;;19.00;74.90;;;;;;4970056;28;20026;-65
2024/02/24 00:23:24;;;;;;;47.65;31.77;;;19.00;74.80;;;;;;4970046;28;20033;-65
2024/02/24 00:25:50;;;;;;;44.30;29.92;;;19.00;75.00;;;;;;4970497;28;20106;-65
2024/02/24 00:28:15;;;;;;;45.67;30.13;;;19.00;75.00;;;;;;4989507;28;20027;-65
2024/02/24 00:30:41;;;;;;;48.10;31.00;;;19.00;75.10;;;;;;4983091;28;20035;-65
2024/02/24 00:33:07;;;;;;;44.05;30.00;;;19.00;74.80;;;;;;4969793;28;20050;-66
2024/02/24 00:35:33;;;;;;;44.10;29.70;;;19.00;74.90;;;;;;4969345;28;20077;-66
2024/02/24 00:37:58;;;;;;;45.53;30.42;;;19.00;74.90;;;;;;4969943;28;20072;-66
2024/02/24 00:40:24;;;;;;;43.45;29.38;;;19.00;74.90;;;;;;4969729;28;20023;-66
2024/02/24 00:42:50;;;;;;;44.60;28.98;;;19.00;75.00;;;;;;4970051;28;20022;-66
2024/02/24 00:45:15;;;;;;;43.33;27.98;;;19.00;74.90;;;;;;4990198;28;20032;-65
2024/02/24 00:47:41;;;;;;;42.45;28.42;;;19.10;74.90;;;;;;4970061;28;20019;-65
2024/02/24 00:50:07;;;;;;;42.53;28.42;;;19.00;74.90;;;;;;4969793;28;20031;-66
2024/02/24 00:52:33;;;;;;;39.75;27.75;;;19.00;74.90;;;;;;4969515;28;20145;-66
2024/02/24 00:55:00;;;;;;;41.22;28.35;;;19.00;74.90;;;;;;4969736;28;20106;-67
2024/02/24 00:57:25;;;;;;;40.33;27.45;;;19.00;74.80;;;;;;4969910;28;20023;-66
2024/02/24 00:59:51;;;;;;;38.10;26.60;;;19.00;74.70;;;;;;4969713;28;20391;-66
2024/02/24 01:02:17;;;;;;;38.63;26.75;;;19.10;75.00;;;;;;4969518;28;20050;-64
2024/02/24 01:04:42;;;;;;;37.63;26.42;;;19.10;75.00;;;;;;4969886;28;20120;-66
2024/02/24 01:07:10;;;;;;;38.85;27.90;;;19.00;75.00;;;;;;4969568;28;20026;-65
2024/02/24 01:09:36;;;;;;;38.63;26.33;;;19.00;75.10;;;;;;4969764;28;20106;-66
2024/02/24 01:12:02;;;;;;;37.17;26.00;;;19.10;75.00;;;;;;4969620;28;20098;-65
2024/02/24 01:14:28;;;;;;;37.92;25.73;;;19.00;75.10;;;;;;4969484;28;20019;-65
2024/02/24 01:16:54;;;;;;;33.80;23.95;;;19.10;75.30;;;;;;4969713;28;20030;-66
2024/02/24 01:19:19;;;;;;;37.95;25.90;;;19.00;75.40;;;;;;4969006;28;20073;-65
2024/02/24 01:21:45;;;;;;;34.20;23.70;;;19.10;75.40;;;;;;4969564;28;20077;-66
2024/02/24 01:24:13;;;;;;;32.60;23.17;;;19.00;75.40;;;;;;4969555;28;20405;-66
2024/02/24 01:26:38;;;;;;;34.67;24.65;;;19.10;75.50;;;;;;4969651;28;20033;-66
2024/02/24 01:29:04;;;;;;;36.45;24.98;;;19.00;75.50;;;;;;4969368;28;20390;-66
2024/02/24 01:31:30;;;;;;;36.42;23.52;;;19.00;75.60;;;;;;4969102;28;20019;-66
2024/02/24 01:33:55;;;;;;;34.53;24.13;;;19.00;75.30;;;;;;4969263;28;20023;-66
2024/02/24 01:36:21;;;;;;;36.42;24.15;;;19.00;75.40;;;;;;4969324;28;20482;-63
2024/02/24 01:38:46;;;;;;;34.33;22.92;;;19.00;75.20;;;;;;4969594;28;20023;-63
2024/02/24 01:41:12;;;;;;;35.45;23.58;;;19.00;75.60;;;;;;4969010;28;20034;-63
2024/02/24 01:43:38;;;;;;;35.15;23.05;;;19.00;75.90;;;;;;4969536;28;20043;-63
2024/02/24 01:46:05;;;;;;;36.22;23.90;;;19.10;75.70;;;;;;4969398;28;20074;-63
2024/02/24 01:48:32;;;;;;;33.53;23.20;;;19.10;75.80;;;;;;4971934;28;20087;-63
2024/02/24 01:50:58;;;;;;;32.80;22.13;;;19.00;75.90;;;;;;4972528;28;20038;-67
2024/02/24 01:53:26;;;;;;;33.47;21.90;;;19.10;75.90;;;;;;4972298;28;20018;-67
2024/02/24 01:55:53;;;;;;;33.17;22.10;;;19.10;76.10;;;;;;4972532;28;20029;-67
2024/02/24 01:58:20;;;;;;;32.78;22.05;;;19.10;76.10;;;;;;4972384;28;20491;-69
2024/02/24 02:00:46;;;;;;;31.88;21.77;;;19.10;76.10;;;;;;4972864;28;20498;-68
2024/02/24 02:03:12;;;;;;;33.15;21.58;;;19.00;76.30;;;;;;4972150;28;20114;-68
2024/02/24 02:05:38;;;;;;;30.65;20.67;;;19.00;76.50;;;;;;4955311;28;20113;-69
2024/02/24 02:08:04;;;;;;;30.75;20.85;;;19.00;76.40;;;;;;4973200;28;20027;-68
2024/02/24 02:10:49;;;;;;;29.08;20.25;;;19.00;76.40;;;;;;4983652;28;20038;-68
2024/02/24 02:13:15;;;;;;;27.20;19.42;;;19.00;76.60;;;;;;4970918;28;20026;-67
2024/02/24 02:15:41;;;;;;;29.75;20.08;;;19.00;76.40;;;;;;4972480;28;20035;-63
2024/02/24 02:18:07;;;;;;;30.27;19.55;;;19.00;76.80;;;;;;4972316;28;20023;-63
2024/02/24 02:20:33;;;;;;;29.67;20.08;;;19.00;76.60;;;;;;4972413;28;20054;-63
2024/02/24 02:22:59;;;;;;;28.90;19.45;;;19.00;76.60;;;;;;4972219;28;20033;-64
2024/02/24 02:25:24;;;;;;;28.10;19.42;;;19.00;76.50;;;;;;4972027;28;20019;-65
2024/02/24 02:27:50;;;;;;;27.85;18.70;;;19.00;76.70;;;;;;4972336;28;20035;-62
2024/02/24 02:30:15;;;;;;;29.17;20.02;;;19.00;76.70;;;;;;4971947;28;20490;-63
2024/02/24 02:32:41;;;;;;;27.98;19.33;;;19.10;76.90;;;;;;4971964;28;20118;-64
2024/02/24 02:35:09;;;;;;;30.85;20.27;;;19.00;76.80;;;;;;4972067;28;20027;-63
2024/02/24 02:37:35;;;;;;;29.23;18.90;;;19.00;76.80;;;;;;4971945;28;20019;-63
2024/02/24 02:40:02;;;;;;;27.73;18.38;;;19.00;76.90;;;;;;4971913;28;20106;-62
2024/02/24 02:42:27;;;;;;;28.90;18.80;;;19.10;77.00;;;;;;4971801;28;20513;-62
2024/02/24 02:44:53;;;;;;;47.35;18.02;;;19.00;77.10;;;;;;4971762;28;20026;-68
2024/02/24 02:47:18;;;;;;;34.97;18.42;;;19.10;77.20;;;;;;4971791;28;20015;-66
2024/02/24 02:49:44;;;;;;;33.08;16.80;;;19.00;77.20;;;;;;4971874;28;20101;-67
2024/02/24 02:52:10;;;;;;;27.48;17.35;;;19.10;77.20;;;;;;4972018;28;20059;-64
2024/02/24 02:54:35;;;;;;;27.63;17.05;;;19.10;77.40;;;;;;4970750;28;20027;-68
2024/02/24 02:57:01;;;;;;;28.05;17.65;;;19.00;77.30;;;;;;4974017;28;20479;-67
2024/02/24 02:59:26;;;;;;;26.35;17.08;;;19.00;77.50;;;;;;4970751;28;20027;-65
2024/02/24 03:01:52;;;;;;;26.00;16.83;;;19.00;77.50;;;;;;4971462;28;20395;-65
2024/02/24 03:04:19;;;;;;;25.90;15.65;;;19.00;77.60;;;;;;4971546;28;20110;-66
2024/02/24 03:06:44;;;;;;;24.33;15.50;;;19.00;77.70;;;;;;4971480;28;20027;-65
2024/02/24 03:09:10;;;;;;;28.80;16.95;;;19.00;77.60;;;;;;4971337;28;20035;-67
2024/02/24 03:11:36;;;;;;;25.15;16.77;;;19.00;77.70;;;;;;4971143;28;20030;-65
2024/02/24 03:14:03;;;;;;;26.40;15.07;;;19.00;77.70;;;;;;4947411;28;20031;-65
2024/02/24 03:16:29;;;;;;;22.38;15.35;;;19.00;77.80;;;;;;4970459;28;20030;-65
2024/02/24 03:18:54;;;;;;;27.83;15.45;;;19.00;77.70;;;;;;4971318;28;20027;-64
2024/02/24 03:21:38;;;;;;;25.75;16.10;;;19.00;77.70;;;;;;4971164;28;20094;-63
2024/02/24 03:24:05;;;;;;;21.30;14.77;;;19.00;77.70;;;;;;4971486;28;20386;-67
2024/02/24 03:26:31;;;;;;;22.95;14.02;;;19.00;77.90;;;;;;4971061;28;20114;-66
2024/02/24 03:28:57;;;;;;;25.15;14.85;;;19.00;77.90;;;;;;4971204;28;20113;-67
2024/02/24 03:31:23;;;;;;;28.23;15.38;;;19.00;77.80;;;;;;4970773;28;20018;-67
2024/02/24 03:33:48;;;;;;;22.17;13.90;;;19.00;77.90;;;;;;4971130;28;20112;-65
2024/02/24 03:36:18;;;;;;;20.17;13.88;;;18.90;77.90;;;;;;4971133;28;20069;-65
2024/02/24 03:38:44;;;;;;;21.65;14.25;;;18.90;78.00;;;;;;4971059;28;20572;-67
2024/02/24 03:41:10;;;;;;;25.40;14.75;;;18.90;78.00;;;;;;4970816;28;20034;-66
2024/02/24 03:43:37;;;;;;;19.98;13.52;;;19.00;77.90;;;;;;4970920;28;20027;-66
2024/02/24 03:46:03;;;;;;;20.70;13.95;;;18.90;78.00;;;;;;4970989;28;20402;-67
2024/02/24 03:48:32;;;;;;;20.77;13.45;;;18.90;78.20;;;;;;4945482;28;20023;-65
2024/02/24 03:50:59;;;;;;;23.55;13.10;;;18.90;78.10;;;;;;4970575;28;20383;-65
2024/02/24 03:53:26;;;;;;;19.60;13.23;;;18.90;78.10;;;;;;4970801;28;20019;-65
2024/02/24 03:55:52;;;;;;;27.63;13.73;;;18.90;78.30;;;;;;4970676;28;20548;-65
2024/02/24 03:58:18;;;;;;;19.92;13.20;;;18.90;78.20;;;;;;4970752;28;20034;-65
2024/02/24 04:00:44;;;;;;;19.40;12.65;;;18.90;78.30;;;;;;4970543;28;20379;-65
2024/02/24 04:03:10;;;;;;;20.13;12.90;;;18.90;78.40;;;;;;4970562;28;20029;-65
2024/02/24 04:05:36;;;;;;;17.88;12.38;;;18.90;78.40;;;;;;4970700;28;20101;-65
2024/02/24 04:08:03;;;;;;;18.35;12.45;;;18.90;78.30;;;;;;4970712;28;20027;-65
2024/02/24 04:10:29;;;;;;;18.13;12.98;;;18.90;78.30;;;;;;4969161;28;20027;-65
2024/02/24 04:12:55;;;;;;;18.45;12.45;;;18.90;78.40;;;;;;4970629;28;20042;-65
2024/02/24 04:15:21;;;;;;;19.15;12.77;;;18.90;78.40;;;;;;4970411;28;20023;-65
2024/02/24 04:17:47;;;;;;;19.88;12.50;;;18.90;78.20;;;;;;4970609;28;20019;-65
2024/02/24 04:20:14;;;;;;;17.13;11.20;;;18.90;78.40;;;;;;4970085;28;20027;-63
2024/02/24 04:22:40;;;;;;;18.35;12.25;;;18.90;78.40;;;;;;4945172;28;20106;-64
2024/02/24 04:25:06;;;;;;;17.80;11.85;;;18.90;78.50;;;;;;4970269;28;20100;-64
2024/02/24 04:27:32;;;;;;;18.02;11.82;;;18.90;78.50;;;;;;4970294;28;20106;-64
2024/02/24 04:29:57;;;;;;;16.58;11.43;;;18.90;78.50;;;;;;4970144;28;20462;-64
2024/02/24 04:32:23;;;;;;;18.25;11.57;;;18.90;78.50;;;;;;4969955;28;20038;-63
2024/02/24 04:34:49;;;;;;;18.63;11.95;;;18.90;78.60;;;;;;4970526;28;20026;-63
2024/02/24 04:37:14;;;;;;;16.27;10.93;;;18.90;78.70;;;;;;4970031;28;20027;-64
2024/02/24 04:39:40;;;;;;;18.33;10.95;;;18.90;78.80;;;;;;4969845;28;20105;-64
2024/02/24 04:42:06;;;;;;;18.40;10.70;;;18.90;78.80;;;;;;4969837;28;20029;-64
2024/02/24 04:44:32;;;;;;;19.95;11.32;;;18.90;78.90;;;;;;4969986;28;21467;-65
2024/02/24 04:46:58;;;;;;;16.25;10.65;;;18.90;79.10;;;;;;4969936;28;20062;-65
2024/02/24 04:49:23;;;;;;;18.98;10.32;;;18.90;79.00;;;;;;4969767;28;20101;-66
2024/02/24 04:51:49;;;;;;;15.38;10.13;;;18.90;79.30;;;;;;4969757;28;20486;-66
2024/02/24 04:54:16;;;;;;;16.13;10.35;;;18.90;79.30;;;;;;4969858;28;20089;-65
2024/02/24 04:56:42;;;;;;;14.85;10.60;;;18.90;79.20;;;;;;4969942;28;20487;-65
2024/02/24 04:59:08;;;;;;;16.77;11.13;;;18.90;79.20;;;;;;4969779;28;20031;-69
2024/02/24 05:01:33;;;;;;;15.80;10.68;;;18.90;79.30;;;;;;4969620;28;20478;-64
2024/02/24 05:03:59;;;;;;;18.05;10.98;;;18.90;79.40;;;;;;4969642;28;20101;-65
2024/02/24 05:06:24;;;;;;;16.67;10.52;;;18.90;79.50;;;;;;4969661;28;20023;-66
2024/02/24 05:08:50;;;;;;;15.57;10.30;;;18.90;79.50;;;;;;4969702;28;20418;-68
2024/02/24 05:11:15;;;;;;;15.52;10.32;;;18.90;79.50;;;;;;4969292;28;20034;-65
2024/02/24 05:13:41;;;;;;;15.43;10.52;;;18.90;79.50;;;;;;4969575;28;20019;-66
2024/02/24 05:16:07;;;;;;;16.50;10.65;;;18.90;79.40;;;;;;4969727;28;20031;-67
2024/02/24 05:18:33;;;;;;;14.30;10.07;;;18.90;79.40;;;;;;4969173;28;20042;-65
2024/02/24 05:21:00;;;;;;;16.92;10.15;;;18.90;79.30;;;;;;4969155;28;20038;-67
2024/02/24 05:23:26;;;;;;;17.60;10.48;;;18.90;79.50;;;;;;4969441;28;20049;-69
2024/02/24 05:25:52;;;;;;;15.60;10.07;;;18.90;79.50;;;;;;4969568;28;20499;-70
2024/02/24 05:28:18;;;;;;;18.63;9.23;;;18.90;79.40;;;;;;4969205;28;20061;-63
2024/02/24 05:30:43;;;;;;;13.27;9.20;;;18.90;79.40;;;;;;4969222;28;20055;-62
2024/02/24 05:33:09;;;;;;;15.25;9.43;;;18.90;79.50;;;;;;4969275;28;20098;-62
2024/02/24 05:35:35;;;;;;;14.32;9.02;;;18.90;79.40;;;;;;4969310;28;20027;-62
2024/02/24 05:38:00;;;;;;;12.95;8.82;;;18.80;79.30;;;;;;4969306;28;20027;-62
2024/02/24 05:40:26;;;;;;;11.90;8.88;;;18.90;79.30;;;;;;4969770;28;20114;-62
2024/02/24 05:42:52;;;;;;;13.18;8.93;;;18.90;79.40;;;;;;4969287;28;20376;-64
2024/02/24 05:45:17;;;;;;;15.60;8.25;;;18.90;79.40;;;;;;4969155;28;20039;-62
2024/02/24 05:47:43;;;;;;;14.68;9.35;;;18.90;79.20;;;;;;4969213;28;20508;-65
2024/02/24 05:50:10;;;;;;;13.80;8.98;;;18.90;79.30;;;;;;4968993;28;20050;-63
2024/02/24 05:52:36;;;;;;;13.90;8.60;;;18.90;79.20;;;;;;4968722;28;20046;-63
2024/02/24 05:55:06;;;;;;;14.52;8.40;;;18.90;79.20;;;;;;4969332;28;20053;-67
2024/02/24 05:57:32;;;;;;;12.30;8.55;;;18.90;79.30;;;;;;4969141;28;20073;-66
2024/02/24 05:59:59;;;;;;;11.98;7.45;;;18.90;79.20;;;;;;4969038;28;20035;-66
2024/02/24 06:02:24;;;;;;;9.73;7.30;;;18.90;79.30;;;;;;4968692;28;20098;-66
2024/02/24 06:04:50;;;;;;;12.00;7.93;;;18.90;79.10;;;;;;4969076;28;20101;-67
2024/02/24 06:07:16;;;;;;;11.27;7.93;;;18.80;79.20;;;;;;4968842;28;20483;-66
2024/02/24 06:09:42;;;;;;;13.07;8.43;;;18.90;79.00;;;;;;4968822;28;20092;-63
2024/02/24 06:12:08;;;;;;;13.65;8.02;;;18.90;79.10;;;;;;4968743;28;20046;-62
2024/02/24 06:14:34;;;;;;;9.65;7.00;;;18.80;79.10;;;;;;4968818;28;20483;-63
2024/02/24 06:17:00;;;;;;;11.55;7.53;;;18.90;79.20;;;;;;4968878;28;20075;-62
2024/02/24 06:19:25;;;;;;;12.00;7.65;;;18.80;79.00;;;;;;4968598;28;20030;-62
2024/02/24 06:21:51;;;;;;;10.90;7.60;;;18.80;79.10;;;;;;4968706;28;20038;-62
2024/02/24 06:24:16;;;;;;;13.50;8.02;;;18.90;79.10;;;;;;4968859;28;20042;-62
2024/02/24 06:26:42;;;;;;;11.52;7.60;;;18.90;79.00;;;;;;4968753;28;20050;-62
2024/02/24 06:29:08;;;;;;;11.73;7.63;;;18.90;79.00;;;;;;4968632;28;20049;-62
2024/02/24 06:31:33;;;;;;;11.70;7.57;;;18.90;79.00;;;;;;4968331;28;20051;-62
2024/02/24 06:33:59;;;;;;;10.00;7.15;;;18.90;78.90;;;;;;4970638;28;20413;-62
2024/02/24 06:36:25;;;;;;;11.07;8.05;;;18.90;78.90;;;;;;4971869;28;20023;-62
2024/02/24 06:38:51;;;;;;;9.30;6.85;;;18.90;78.90;;;;;;4971846;28;20486;-62
2024/02/24 06:41:18;;;;;;;9.73;7.28;;;18.90;78.80;;;;;;4971694;28;20034;-63
2024/02/24 06:43:44;;;;;;;12.50;7.68;;;18.90;78.80;;;;;;4971831;28;20498;-63
2024/02/24 06:46:10;;;;;;;10.85;7.88;;;18.90;78.70;;;;;;4970173;28;20509;-63
2024/02/24 06:48:35;;;;;;;10.68;7.00;;;18.90;78.60;;;;;;4971539;28;20027;-64
2024/02/24 06:51:01;;;;;;;10.65;6.78;;;18.90;78.80;;;;;;4971466;28;20027;-63
2024/02/24 06:53:26;;;;;;;9.30;6.68;;;18.90;78.70;;;;;;4971605;28;20026;-63
2024/02/24 06:55:52;;;;;;;9.20;6.03;;;18.90;78.60;;;;;;4971957;28;20123;-62
2024/02/24 06:58:17;;;;;;;12.00;7.47;;;18.90;78.80;;;;;;4972052;28;20542;-62
2024/02/24 07:00:43;;;;;;;10.32;6.40;;;18.90;78.90;;;;;;4976430;28;20019;-63
2024/02/24 07:03:09;;;;;;;10.43;6.75;;;18.90;79.00;;;;;;4971681;28;20027;-64
2024/02/24 07:05:34;;;;;;;12.85;7.13;;;18.90;79.10;;;;;;4971546;28;20097;-64
2024/02/24 07:08:00;;;;;;;10.90;7.18;;;18.90;79.10;;;;;;4973912;28;20085;-64
2024/02/24 07:10:26;;;;;;;16.88;6.45;;;19.00;79.20;;;;;;4961260;28;20024;-63
2024/02/24 07:12:52;;;;;;;11.90;6.40;;;19.00;79.10;;;;;;4971095;28;20031;-63
2024/02/24 07:15:18;;;;;;;10.82;6.47;;;19.00;79.10;;;;;;4970875;28;20027;-65
2024/02/24 07:17:43;;;;;;;10.25;6.78;;;19.00;79.10;;;;;;4970457;28;20104;-64
2024/02/24 07:20:09;;;;;;;13.50;6.78;;;19.00;79.10;;;;;;4967204;28;20046;-64
2024/02/24 07:22:35;;;;;;;16.25;6.85;;;19.10;79.10;;;;;;4971789;28;20031;-64
2024/02/24 07:25:01;;;;;;;9.43;5.88;;;19.10;78.90;;;;;;4970978;28;20033;-64
2024/02/24 07:27:26;;;;;;;10.07;6.30;;;19.10;78.70;;;;;;4967880;28;20027;-65
2024/02/24 07:29:53;;;;;;;11.30;6.90;;;19.10;78.50;;;;;;4971194;28;20058;-65
2024/02/24 07:32:19;;;;;;;20.00;5.00;;;19.10;78.30;;;;;;4969921;28;20019;-64
2024/02/24 07:34:44;;;;;;;8.55;3.92;;;18.90;63.60;;;;;;4968938;28;20621;-64
2024/02/24 07:37:11;;;;;;;6.88;4.30;;;17.50;53.30;;;;;;4970809;28;20038;-64
2024/02/24 07:39:37;;;;;;;10.35;4.72;;;17.00;56.70;;;;;;4970723;28;20015;-64
2024/02/24 07:42:03;;;;;;;5.95;3.75;;;16.70;59.50;;;;;;4947053;28;20026;-69
2024/02/24 07:44:29;;;;;;;7.68;3.90;;;16.20;52.20;;;;;;4969416;28;20023;-69
2024/02/24 07:46:55;;;;;;;6.78;3.85;;;15.80;51.60;;;;;;4970754;28;20552;-68
2024/02/24 07:49:21;;;;;;;8.45;3.90;;;15.30;50.30;;;;;;4970710;28;20079;-67
2024/02/24 07:51:47;;;;;;;6.57;3.78;;;15.20;50.70;;;;;;4970723;28;20037;-68
2024/02/24 07:54:13;;;;;;;8.70;4.13;;;15.00;50.60;;;;;;4970623;28;20019;-67
2024/02/24 07:56:38;;;;;;;5.57;3.78;;;14.80;51.10;;;;;;4964846;28;20026;-68
2024/02/24 07:59:04;;;;;;;5.57;3.70;;;14.90;52.40;;;;;;4970549;28;20030;-68
2024/02/24 08:01:30;;;;;;;7.72;3.60;;;14.90;50.60;;;;;;4970131;28;20482;-64
2024/02/24 08:03:56;;;;;;;6.68;4.22;;;14.80;52.00;;;;;;4970222;28;20062;-63
2024/02/24 08:06:22;;;;;;;6.13;3.60;;;15.30;58.50;;;;;;4970542;28;20062;-64
2024/02/24 08:08:47;;;;;;;6.95;3.40;;;15.60;63.80;;;;;;4970518;28;20402;-64
2024/02/24 08:11:13;;;;;;;5.38;3.25;;;16.00;66.80;;;;;;4970153;28;20555;-65
2024/02/24 08:13:41;;;;;;;5.90;3.63;;;16.20;67.60;;;;;;4962470;28;20034;-62
2024/02/24 08:16:08;;;;;;;14.65;4.65;;;16.40;68.10;;;;;;4930272;28;20051;-65
2024/02/24 08:18:35;;;;;;;12.20;4.63;;;16.50;70.00;;;;;;4969596;28;20055;-65
2024/02/24 08:21:08;;;;;;;11.15;5.00;;;16.70;71.10;;;;;;4944840;28;20026;-64
2024/02/24 08:23:34;;;;;;;7.78;3.80;;;16.90;71.70;;;;;;4968880;28;20120;-64
2024/02/24 08:26:00;;;;;;;7.97;3.58;;;17.00;71.50;;;;;;4968364;28;20368;-64
2024/02/24 08:28:26;;;;;;;12.93;4.60;;;17.10;71.60;;;;;;4968073;28;20037;-64
2024/02/24 08:30:51;;;;;;;10.60;4.72;;;17.10;71.50;;;;;;4968195;28;20054;-66
2024/02/24 08:33:22;;;;;;;11.90;4.65;;;17.30;72.20;;;;;;4966493;28;20892;-64
2024/02/24 08:35:51;;;;;;;7.53;4.35;;;17.30;72.40;;;;;;4967627;28;20027;-65
2024/02/24 08:38:17;;;;;;;8.70;4.13;;;17.40;72.30;;;;;;4987023;28;20035;-64
2024/02/24 08:40:43;;;;;;;7.65;3.78;;;17.40;72.10;;;;;;4983431;28;20076;-65
2024/02/24 08:43:08;;;;;;;13.70;4.07;;;17.50;72.10;;;;;;4990320;28;20459;-64
2024/02/24 08:45:34;;;;;;;7.80;4.47;;;17.50;71.90;;;;;;4996039;28;20516;-65
2024/02/24 08:47:59;;;;;;;6.32;4.55;;;17.60;71.80;;;;;;4977496;28;20035;-65
2024/02/24 08:50:25;;;;;;;9.40;3.70;;;17.60;71.80;;;;;;4975827;28;20112;-65
2024/02/24 08:52:51;;;;;;;8.82;4.00;;;17.70;71.70;;;;;;4980145;28;20019;-65
2024/02/24 08:55:16;;;;;;;7.07;4.35;;;17.70;71.60;;;;;;4991245;28;20033;-65
2024/02/24 08:57:42;;;;;;;8.50;4.68;;;17.80;72.30;;;;;;4973716;28;20019;-65
2024/02/24 09:00:08;;;;;;;6.68;3.80;;;17.80;72.50;;;;;;4980943;28;20441;-65
2024/02/24 09:02:34;;;;;;;7.55;4.05;;;17.90;72.50;;;;;;4968646;28;20445;-65
2024/02/24 09:05:00;;;;;;;6.25;3.63;;;17.90;72.40;;;;;;4967826;28;20023;-65
2024/02/24 09:07:25;;;;;;;6.75;4.32;;;18.00;72.60;;;;;;4968007;28;20022;-64
2024/02/24 09:09:51;;;;;;;9.25;4.25;;;18.00;72.70;;;;;;4968992;28;20023;-66
2024/02/24 09:12:17;;;;;;;13.48;4.55;;;18.00;73.30;;;;;;4967997;28;20401;-66
2024/02/24 09:14:42;;;;;;;8.35;3.97;;;18.00;73.70;;;;;;4944205;28;20468;-65
2024/02/24 09:17:08;;;;;;;8.32;4.47;;;18.10;73.90;;;;;;4969504;28;20062;-66
2024/02/24 09:19:33;;;;;;;8.57;3.88;;;18.10;74.10;;;;;;4969186;28;20035;-65
2024/02/24 09:21:59;;;;;;;10.05;4.18;;;18.10;74.20;;;;;;4969489;28;20023;-65
2024/02/24 09:24:25;;;;;;;13.93;4.90;;;18.20;74.30;;;;;;4969423;28;20420;-66
2024/02/24 09:26:50;;;;;;;6.80;4.00;;;18.20;74.30;;;;;;4969208;28;20118;-65
2024/02/24 09:29:16;;;;;;;12.93;5.15;;;18.20;74.30;;;;;;4969113;28;20050;-66
2024/02/24 09:31:42;;;;;;;6.13;3.70;;;18.30;74.30;;;;;;4969361;28;20026;-66
2024/02/24 09:34:07;;;;;;;7.22;4.20;;;18.30;74.30;;;;;;4969342;28;20035;-66
2024/02/24 09:36:36;;;;;;;7.82;4.47;;;18.40;74.20;;;;;;4969247;28;20029;-65
2024/02/24 09:39:03;;;;;;;6.55;4.10;;;18.40;74.40;;;;;;4969200;28;20025;-65
2024/02/24 09:41:28;;;;;;;10.02;3.92;;;18.40;74.40;;;;;;4968706;28;20391;-65
2024/02/24 09:43:54;;;;;;;8.70;3.85;;;18.40;74.80;;;;;;4969312;28;20022;-65
2024/02/24 09:46:20;;;;;;;16.70;4.10;;;18.50;74.80;;;;;;4969324;28;20022;-65
2024/02/24 09:48:46;;;;;;;6.10;4.25;;;18.50;75.00;;;;;;4943896;28;20027;-66
2024/02/24 09:51:12;;;;;;;5.10;3.97;;;18.50;75.10;;;;;;4968948;28;20027;-65
2024/02/24 09:53:38;;;;;;;5.95;3.92;;;18.50;75.00;;;;;;4969023;28;20027;-65
2024/02/24 09:56:04;;;;;;;8.13;3.78;;;18.50;75.10;;;;;;4968862;28;20019;-65
2024/02/24 09:58:32;;;;;;;6.55;3.90;;;18.50;75.00;;;;;;4969036;28;20034;-65
2024/02/24 10:00:58;;;;;;;12.57;4.18;;;18.50;75.10;;;;;;4968656;28;20088;-66
2024/02/24 10:03:25;;;;;;;8.75;3.67;;;18.60;75.50;;;;;;4968920;28;20019;-65
2024/02/24 10:05:50;;;;;;;10.02;4.00;;;18.60;75.40;;;;;;4969236;28;20411;-66
2024/02/24 10:08:16;;;;;;;11.57;4.30;;;18.60;75.30;;;;;;4969960;28;20031;-66
2024/02/24 10:10:42;;;;;;;8.80;4.25;;;18.70;75.20;;;;;;4972017;28;20656;-65
2024/02/24 10:13:07;;;;;;;9.45;3.95;;;18.70;75.30;;;;;;4972172;28;20027;-66
2024/02/24 10:15:36;;;;;;;8.93;3.83;;;18.70;75.10;;;;;;4972236;28;20026;-66
2024/02/24 10:18:03;;;;;;;10.10;4.18;;;18.70;75.30;;;;;;4972288;28;20030;-66
2024/02/24 10:20:29;;;;;;;5.18;3.15;;;18.70;75.20;;;;;;4971920;28;20039;-66
2024/02/24 10:22:55;;;;;;;6.97;3.78;;;18.70;75.30;;;;;;4972031;28;20239;-66
2024/02/24 10:25:21;;;;;;;9.25;4.38;;;18.80;75.20;;;;;;4971832;28;20037;-66
2024/02/24 10:27:48;;;;;;;6.35;3.92;;;18.80;75.20;;;;;;4971930;28;20035;-66
2024/02/24 10:30:14;;;;;;;6.40;3.20;;;18.80;75.00;;;;;;4971853;28;20023;-66
2024/02/24 10:32:41;;;;;;;7.53;2.63;;;18.80;75.00;;;;;;4965882;28;20022;-68
2024/02/24 10:35:08;;;;;;;4.00;1.90;;;18.80;65.10;;;;;;4971764;28;20216;-67
2024/02/24 10:37:34;;;;;;;5.18;2.50;;;18.50;59.50;;;;;;4971577;28;20031;-68
2024/02/24 10:40:11;;;;;;;5.13;2.40;;;18.50;63.50;;;;;;4972103;28;20023;-67
2024/02/24 10:42:37;;;;;;;6.38;1.90;;;18.40;57.70;;;;;;4971570;28;20507;-68
2024/02/24 10:45:06;;;;;;;3.08;1.73;;;18.30;53.20;;;;;;4971611;28;20050;-67
2024/02/24 10:47:35;;;;;;;3.35;1.50;;;18.20;54.80;;;;;;4970707;28;20019;-68
2024/02/24 10:50:03;;;;;;;3.20;1.80;;;18.10;54.30;;;;;;4971572;28;20031;-67
2024/02/24 10:52:30;;;;;;;4.88;1.20;;;18.00;48.70;;;;;;4971374;28;20474;-68
2024/02/24 10:54:57;;;;;;;3.03;1.35;;;17.90;50.20;;;;;;4971664;28;20035;-68
2024/02/24 10:57:23;;;;;;;2.13;1.15;;;17.90;46.70;;;;;;4971442;28;20502;-68
2024/02/24 10:59:49;;;;;;;3.38;2.10;;;17.80;49.90;;;;;;4971646;28;20080;-68
2024/02/24 11:02:15;;;;;;;3.30;1.40;;;17.90;53.80;;;;;;4969837;28;20513;-64
2024/02/24 11:04:40;;;;;;;6.30;2.80;;;17.90;56.20;;;;;;4969575;28;20026;-64
2024/02/24 11:07:20;;;;;;;5.20;2.92;;;18.00;63.40;;;;;;4970620;28;20069;-64
2024/02/24 11:09:52;;;;;;;8.43;3.30;;;18.00;67.30;;;;;;4963565;28;20649;-64
2024/02/24 11:12:21;;;;;;;5.43;2.92;;;18.10;69.50;;;;;;4969304;28;20513;-63
2024/02/24 11:14:47;;;;;;;6.47;3.00;;;18.20;71.00;;;;;;4971067;28;20026;-62
2024/02/24 11:17:52;;;;;;;7.75;2.95;;;18.20;71.50;;;;;;4971165;28;20455;-63
2024/02/24 11:20:33;;;;;;;8.15;2.92;;;18.20;72.00;;;;;;4967524;28;20037;-64
2024/02/24 11:23:21;;;;;;;6.07;3.45;;;18.20;72.30;;;;;;4970771;28;20027;-62
2024/02/24 11:25:48;;;;;;;7.65;2.70;;;18.20;72.40;;;;;;4964129;28;20164;-63
2024/02/24 11:28:24;;;;;;;8.30;3.03;;;18.30;72.50;;;;;;4970994;28;20033;-62
2024/02/24 11:30:51;;;;;;;6.38;2.70;;;18.30;72.70;;;;;;4966589;28;20081;-63
2024/02/24 11:33:37;;;;;;;7.20;2.95;;;18.30;72.60;;;;;;4970723;28;20041;-63
2024/02/24 11:36:07;;;;;;;7.15;3.25;;;18.30;72.60;;;;;;4970665;28;20023;-63
2024/02/24 11:38:33;;;;;;;5.97;2.83;;;18.30;72.50;;;;;;4970977;28;20035;-63
2024/02/24 11:41:05;;;;;;;5.68;2.78;;;18.30;72.30;;;;;;4971350;28;20027;-63
2024/02/24 11:43:31;;;;;;;6.53;2.80;;;18.40;72.20;;;;;;4970850;28;20097;-63
2024/02/24 11:45:57;;;;;;;9.25;3.13;;;18.40;72.00;;;;;;4970892;28;20375;-63
2024/02/24 11:48:23;;;;;;;7.28;3.17;;;18.40;71.90;;;;;;4970736;28;20026;-63
2024/02/24 11:50:49;;;;;;;5.28;2.50;;;18.40;71.80;;;;;;4981065;28;20077;-63
2024/02/24 11:53:17;;;;;;;5.40;2.80;;;18.40;71.70;;;;;;4969306;28;20035;-63
2024/02/24 11:55:44;;;;;;;3.83;2.22;;;18.40;71.70;;;;;;4970832;28;20068;-63
2024/02/24 11:58:10;;;;;;;8.88;3.20;;;18.50;71.80;;;;;;4970956;28;20034;-63
2024/02/24 12:00:36;;;;;;;8.73;2.75;;;18.50;71.70;;;;;;4970404;28;20023;-63
2024/02/24 12:03:11;;;;;;;3.78;2.40;;;18.50;71.70;;;;;;4970362;28;20037;-63
2024/02/24 12:05:36;;;;;;;5.30;2.20;;;18.50;71.70;;;;;;4970514;28;20372;-63
2024/02/24 12:08:05;;;;;;;4.35;2.25;;;18.50;71.50;;;;;;4970787;28;20034;-63
2024/02/24 12:10:38;;;;;;;2.95;2.08;;;18.50;71.40;;;;;;4970239;28;20073;-63
2024/02/24 12:13:08;;;;;;;7.47;2.28;;;18.50;71.40;;;;;;4970324;28;20019;-63
2024/02/24 12:15:35;;;;;;;3.90;2.00;;;18.50;71.40;;;;;;4970426;28;20022;-63
2024/02/24 12:18:04;;;;;;;5.88;2.67;;;18.50;71.30;;;;;;4970679;28;20544;-63
2024/02/24 12:20:30;;;;;;;2.92;1.63;;;18.50;71.30;;;;;;4970194;28;20035;-63
2024/02/24 12:23:02;;;;;;;5.55;2.25;;;18.50;71.00;;;;;;4975802;28;20022;-63
2024/02/24 12:25:28;;;;;;;5.47;2.80;;;18.50;71.00;;;;;;4968791;28;20015;-63
2024/02/24 12:27:55;;;;;;;5.38;2.45;;;18.50;70.90;;;;;;4970536;28;20389;-63
2024/02/24 12:30:21;;;;;;;6.53;2.13;;;18.50;70.70;;;;;;4969122;28;20057;-63
2024/02/24 12:32:47;;;;;;;5.18;2.15;;;18.50;70.60;;;;;;4969867;28;20055;-63